Aarschot, Belgium
Current Conditions -  °F | °C
As of 12:25 AM on Friday 28 Nov 2014 (Local Time) from EBDT Reporting Station
Broken Clouds Broken Clouds  
Wind Chill: 44°   Ceiling: 8000
Heat Index: 46°   Visibility: 2.5mi
Dew Point: 45°   Wind: 6mph
Humidity: 93%   Direction: 120°ESE
Pressure: 29.71"   Gusts: NA
Location:  50.99°N, 4.84°E
Report Text: EBDT 272325Z AUTO 12005KT 4100 FEW012/// SCT042/// BKN080/// 08/07 Q1006 GRN
Loading
Personal Weather Stations






























Interactive Weather Map New forecast layout! Learn more

10-Day Weather Forecast

Advertisements
Track Severe Weather on mobile